Time;durP1;ratioP1;P1;durP2;ratioP2;P2;SDS_P1;SDS_P2;PMS_P1;PMS_P2;Temp;Humidity;BMP_temperature;BMP_pressure;BME280_temperature;BME280_humidity;BME280_pressure;Samples;Min_cycle;Max_cycle;Signal;HPM_P1;HPM_P2
2023/09/15 00:00:28;;;;;;;;;;;;;;;14.97;94.83;102020.88;4971513;28;19922;-73
2023/09/15 00:02:58;;;;;;;;;;;;;;;14.95;94.68;102024.47;4978737;28;20168;-73
2023/09/15 00:05:23;;;;;;;;;;;;;;;14.92;94.61;102022.81;4971605;28;20252;-73
2023/09/15 00:07:49;;;;;;;;;;;;;;;14.90;94.73;102018.53;4973275;28;19973;-73
2023/09/15 00:10:15;;;;;;;;;;;;;;;14.87;94.90;102019.50;4970442;28;19958;-73
2023/09/15 00:12:40;;;;;;;;;;;;;;;14.87;95.10;102023.94;4960102;29;19915;-73
2023/09/15 00:15:07;;;;;;;;;;;;;;;14.87;95.38;102018.66;4969220;28;20347;-73
2023/09/15 00:17:40;;;;;;;;;;;;;;;14.84;95.33;102019.63;4965878;28;20247;-73
2023/09/15 00:20:14;;;;;;;;;;;;;;;14.84;95.22;102024.88;4972042;28;19924;-73
2023/09/15 00:22:40;;;;;;;;;;;;;;;14.81;95.21;102017.13;4959744;29;19923;-73
2023/09/15 00:25:06;;;;;;;;;;;;;;;14.81;95.44;102021.50;4972044;28;20285;-73
2023/09/15 00:27:32;;;;;;;;;;;;;;;14.81;95.49;102026.78;4959881;28;19934;-73
2023/09/15 00:29:57;;;;;;;;;;;;;;;14.80;95.33;102022.44;4965633;28;19925;-73
2023/09/15 00:32:22;;;;;;;;;;;;;;;14.80;95.58;102022.44;4978476;28;20304;-73
2023/09/15 00:34:47;;;;;;;;;;;;;;;14.77;95.44;102019.03;4975284;28;19918;-73
2023/09/15 00:37:13;;;;;;;;;;;;;;;14.76;95.46;102012.03;4962136;28;19927;-73
2023/09/15 00:39:38;;;;;;;;;;;;;;;14.74;94.95;102013.84;4975091;28;19989;-73
2023/09/15 00:42:03;;;;;;;;;;;;;;;14.72;95.18;102022.75;4966599;28;20094;-73
2023/09/15 00:44:29;;;;;;;;;;;;;;;14.71;95.38;102023.66;4960612;28;19924;-73
2023/09/15 00:46:54;;;;;;;;;;;;;;;14.70;95.48;102011.41;4964726;28;19926;-73
2023/09/15 00:49:19;;;;;;;;;;;;;;;14.69;95.24;102009.69;4973808;28;19919;-73
2023/09/15 00:51:45;;;;;;;;;;;;;;;14.66;95.27;102010.69;4962683;28;20094;-73
2023/09/15 00:54:11;;;;;;;;;;;;;;;14.64;95.22;102009.84;4978832;28;19957;-73
2023/09/15 00:56:37;;;;;;;;;;;;;;;14.63;95.43;102004.66;4966840;28;19914;-73
2023/09/15 00:59:03;;;;;;;;;;;;;;;14.61;95.22;102011.75;4979188;28;20132;-73
2023/09/15 01:01:28;;;;;;;;;;;;;;;14.60;95.58;102008.25;4968028;28;19915;-73
2023/09/15 01:03:53;;;;;;;;;;;;;;;14.59;95.36;102007.41;4959678;29;19914;-73
2023/09/15 01:06:19;;;;;;;;;;;;;;;14.59;95.45;102012.69;4958898;29;19925;-73
2023/09/15 01:08:44;;;;;;;;;;;;;;;14.58;95.75;102005.69;4968915;28;19953;-73
2023/09/15 01:11:10;;;;;;;;;;;;;;;14.55;95.53;102003.16;4979024;28;20196;-73
2023/09/15 01:13:35;;;;;;;;;;;;;;;14.52;95.69;101999.78;4968515;28;20513;-73
2023/09/15 01:16:04;;;;;;;;;;;;;;;14.49;95.52;102002.53;4959454;29;19906;-73
2023/09/15 01:18:29;;;;;;;;;;;;;;;14.48;95.83;101995.53;4958796;28;19914;-73
2023/09/15 01:21:07;;;;;;;;;;;;;;;14.45;95.70;101993.03;4964409;28;19972;-73
2023/09/15 01:23:41;;;;;;;;;;;;;;;14.40;95.85;101985.28;4964156;28;20136;-73
2023/09/15 01:26:15;;;;;;;;;;;;;;;14.37;96.12;101991.53;4959346;28;19914;-73
2023/09/15 01:28:43;;;;;;;;;;;;;;;14.32;96.25;101993.50;4973581;28;19921;-73
2023/09/15 01:31:10;;;;;;;;;;;;;;;14.29;96.38;101984.84;4978435;28;20184;-73
2023/09/15 01:33:36;;;;;;;;;;;;;;;14.28;96.51;101989.25;4975809;28;20108;-73
2023/09/15 01:36:01;;;;;;;;;;;;;;;14.25;96.81;101992.00;4977965;28;20113;-73
2023/09/15 01:38:26;;;;;;;;;;;;;;;14.24;96.75;101982.38;4973963;28;19910;-73
2023/09/15 01:40:51;;;;;;;;;;;;;;;14.24;96.81;101985.00;4978376;28;19918;-73
2023/09/15 01:43:17;;;;;;;;;;;;;;;14.21;96.61;101978.09;4969119;28;19977;-73
2023/09/15 01:45:42;;;;;;;;;;;;;;;14.17;96.93;101984.41;4965095;28;19970;-73
2023/09/15 01:48:08;;;;;;;;;;;;;;;14.14;97.03;101975.75;4967232;28;20227;-73
2023/09/15 01:50:34;;;;;;;;;;;;;;;14.10;96.97;101979.38;4977979;28;20512;-73
2023/09/15 01:52:59;;;;;;;;;;;;;;;14.08;97.30;101974.19;4972276;28;19914;-73
2023/09/15 01:55:25;;;;;;;;;;;;;;;14.09;97.36;101977.69;4959473;28;19918;-73
2023/09/15 01:57:50;;;;;;;;;;;;;;;14.08;97.28;101970.69;4960547;28;19918;-73
2023/09/15 02:00:16;;;;;;;;;;;;;;;14.06;97.30;101972.53;4958375;28;20087;-73
2023/09/15 02:02:41;;;;;;;;;;;;;;;14.04;97.60;101967.31;4964325;28;19922;-73
2023/09/15 02:05:09;;;;;;;;;;;;;;;14.04;97.68;101969.94;4977609;28;19924;-73
2023/09/15 02:07:34;;;;;;;;;;;;;;;14.05;97.76;101965.56;4976770;28;19922;-73
2023/09/15 02:09:59;;;;;;;;;;;;;;;14.06;97.97;101965.50;4974222;28;20168;-73
2023/09/15 02:12:25;;;;;;;;;;;;;;;14.07;97.96;101958.44;4977349;28;19914;-73
2023/09/15 02:14:50;;;;;;;;;;;;;;;14.08;97.95;101960.16;4959029;28;19941;-73
2023/09/15 02:17:15;;;;;;;;;;;;;;;14.10;97.98;101963.59;4958398;29;20021;-73
2023/09/15 02:19:44;;;;;;;;;;;;;;;14.09;97.85;101960.09;4973908;28;19914;-73
2023/09/15 02:22:09;;;;;;;;;;;;;;;14.08;97.99;101963.66;4964595;28;20195;-73
2023/09/15 02:24:35;;;;;;;;;;;;;;;14.07;98.13;101961.09;4972465;28;20305;-73
2023/09/15 02:27:00;;;;;;;;;;;;;;;14.00;97.93;101956.03;4977650;28;19922;-73
2023/09/15 02:29:25;;;;;;;;;;;;;;;13.97;98.05;101955.28;4981437;28;20547;-73
2023/09/15 02:31:51;;;;;;;;;;;;;;;13.94;98.19;101952.78;4960552;28;19979;-73
2023/09/15 02:34:16;;;;;;;;;;;;;;;13.91;97.98;101956.38;4969032;28;19920;-73
2023/09/15 02:36:42;;;;;;;;;;;;;;;13.90;98.31;101946.78;4966177;28;20105;-73
2023/09/15 02:39:07;;;;;;;;;;;;;;;13.90;98.31;101956.44;4967175;28;19907;-73
2023/09/15 02:41:32;;;;;;;;;;;;;;;13.90;98.46;101961.69;4957358;29;19910;-73
2023/09/15 02:43:59;;;;;;;;;;;;;;;13.90;98.45;101957.31;4965721;28;19906;-73
2023/09/15 02:46:25;;;;;;;;;;;;;;;13.91;98.57;101955.53;4965929;28;20232;-73
2023/09/15 02:48:50;;;;;;;;;;;;;;;13.88;98.42;101950.34;4958804;28;19914;-73
2023/09/15 02:51:15;;;;;;;;;;;;;;;13.87;98.76;101954.78;4960396;28;19990;-73
2023/09/15 02:53:41;;;;;;;;;;;;;;;13.83;98.51;101946.13;4966032;28;19965;-73
2023/09/15 02:56:08;;;;;;;;;;;;;;;13.82;98.65;101954.06;4943298;28;20210;-73
2023/09/15 02:58:33;;;;;;;;;;;;;;;13.80;98.81;101955.91;4965758;28;19986;-73
2023/09/15 03:00:58;;;;;;;;;;;;;;;13.79;98.92;101949.78;4940271;29;19949;-73
2023/09/15 03:03:24;;;;;;;;;;;;;;;13.80;99.04;101948.88;4973795;28;19918;-73
2023/09/15 03:05:50;;;;;;;;;;;;;;;13.82;99.14;101944.44;4976917;28;19906;-73
2023/09/15 03:08:15;;;;;;;;;;;;;;;13.82;98.78;101943.53;4976636;28;19922;-73
2023/09/15 03:10:40;;;;;;;;;;;;;;;13.78;98.78;101940.16;4976640;28;19914;-73
2023/09/15 03:13:05;;;;;;;;;;;;;;;13.76;98.88;101933.25;4976995;28;20224;-73
2023/09/15 03:15:31;;;;;;;;;;;;;;;13.74;99.13;101935.94;4959408;28;20167;-73
2023/09/15 03:17:57;;;;;;;;;;;;;;;13.69;99.02;101929.13;4957525;29;19981;-73
2023/09/15 03:20:22;;;;;;;;;;;;;;;13.68;99.39;101940.56;4959792;28;19918;-73
2023/09/15 03:22:47;;;;;;;;;;;;;;;13.66;99.56;101935.38;4975801;28;19925;-73
2023/09/15 03:25:16;;;;;;;;;;;;;;;13.65;99.63;101931.00;4960404;28;19918;-73
2023/09/15 03:27:41;;;;;;;;;;;;;;;13.63;99.53;101930.22;4958596;28;20414;-73
2023/09/15 03:30:06;;;;;;;;;;;;;;;13.61;100.00;101930.25;4967444;28;19918;-73
2023/09/15 03:32:32;;;;;;;;;;;;;;;13.61;99.76;101934.69;4974570;28;19918;-73
2023/09/15 03:34:58;;;;;;;;;;;;;;;13.58;100.00;101929.50;4967322;28;19973;-73
2023/09/15 03:37:23;;;;;;;;;;;;;;;13.59;100.00;101932.09;4958124;28;19989;-73
2023/09/15 03:39:48;;;;;;;;;;;;;;;13.55;100.00;101925.22;4969208;28;19945;-73
2023/09/15 03:42:14;;;;;;;;;;;;;;;13.54;100.00;101926.13;4961707;28;19917;-73
2023/09/15 03:44:39;;;;;;;;;;;;;;;13.56;100.00;101923.44;4972089;28;20128;-73
2023/09/15 03:47:04;;;;;;;;;;;;;;;13.55;100.00;101916.44;4971278;28;19980;-73
2023/09/15 03:49:30;;;;;;;;;;;;;;;13.57;100.00;101922.50;4972026;28;19919;-73
2023/09/15 03:51:56;;;;;;;;;;;;;;;13.58;100.00;101914.56;4968260;28;19965;-73
2023/09/15 03:54:21;;;;;;;;;;;;;;;13.59;100.00;101910.19;4974142;28;19910;-73
2023/09/15 03:56:46;;;;;;;;;;;;;;;13.57;99.84;101914.63;4956615;28;20201;-73
2023/09/15 03:59:11;;;;;;;;;;;;;;;13.56;100.00;101910.28;4965467;28;19976;-73
2023/09/15 04:01:38;;;;;;;;;;;;;;;13.56;100.00;101913.75;4974354;28;19945;-73
2023/09/15 04:04:04;;;;;;;;;;;;;;;13.57;100.00;101911.97;4976614;28;20088;-73
2023/09/15 04:06:30;;;;;;;;;;;;;;;13.55;99.98;101912.06;4965575;28;20266;-73
2023/09/15 04:08:55;;;;;;;;;;;;;;;13.57;100.00;101911.97;4975421;28;19949;-73
2023/09/15 04:11:20;;;;;;;;;;;;;;;13.54;100.00;101905.06;4963371;28;19925;-73
2023/09/15 04:13:46;;;;;;;;;;;;;;;13.54;99.90;101905.06;4959545;28;19918;-73
2023/09/15 04:16:11;;;;;;;;;;;;;;;13.56;100.00;101907.66;4961681;28;20221;-73
2023/09/15 04:18:36;;;;;;;;;;;;;;;13.55;100.00;101904.16;4968555;28;19918;-73
2023/09/15 04:21:02;;;;;;;;;;;;;;;13.52;99.90;101911.31;4963892;28;19918;-73
2023/09/15 04:23:27;;;;;;;;;;;;;;;13.51;99.93;101906.97;4956667;28;20317;-73
2023/09/15 04:25:53;;;;;;;;;;;;;;;13.51;100.00;101909.59;4966512;28;19964;-73
2023/09/15 04:28:18;;;;;;;;;;;;;;;13.50;100.00;101915.75;4975812;28;20101;-73
2023/09/15 04:30:43;;;;;;;;;;;;;;;13.45;100.00;101905.41;4968920;28;19960;-73
2023/09/15 04:33:08;;;;;;;;;;;;;;;13.43;100.00;101899.34;4967369;28;20121;-73
2023/09/15 04:35:34;;;;;;;;;;;;;;;13.41;100.00;101901.19;4958803;28;19983;-73
2023/09/15 04:37:59;;;;;;;;;;;;;;;13.38;100.00;101896.88;4961725;28;19925;-73
2023/09/15 04:40:24;;;;;;;;;;;;;;;13.39;100.00;101901.22;4970361;28;19925;-73
2023/09/15 04:42:50;;;;;;;;;;;;;;;13.37;100.00;101897.78;4971428;28;19918;-73
2023/09/15 04:45:15;;;;;;;;;;;;;;;13.36;100.00;101898.69;4962767;28;19910;-73
2023/09/15 04:47:43;;;;;;;;;;;;;;;13.36;100.00;101897.84;4959373;29;19914;-73
2023/09/15 04:50:08;;;;;;;;;;;;;;;13.36;100.00;101897.84;4961183;28;19985;-73
2023/09/15 04:52:33;;;;;;;;;;;;;;;13.32;100.00;101901.50;4978099;28;20213;-73
2023/09/15 04:54:59;;;;;;;;;;;;;;;13.31;100.00;101905.03;4976285;28;19990;-73
2023/09/15 04:57:24;;;;;;;;;;;;;;;13.35;100.00;101904.00;4967455;28;19922;-73
2023/09/15 04:59:53;;;;;;;;;;;;;;;13.34;100.00;101907.56;4978807;28;19914;-73
2023/09/15 05:02:18;;;;;;;;;;;;;;;13.31;100.00;101908.50;4967860;28;20173;-73
2023/09/15 05:04:43;;;;;;;;;;;;;;;13.29;100.00;101910.31;4959819;29;20363;-73
2023/09/15 05:07:09;;;;;;;;;;;;;;;13.28;100.00;101905.97;4959328;29;19923;-73
2023/09/15 05:09:34;;;;;;;;;;;;;;;13.29;100.00;101914.72;4976387;28;19914;-73
2023/09/15 05:12:00;;;;;;;;;;;;;;;13.25;100.00;101912.19;4978401;28;20195;-73
2023/09/15 05:14:25;;;;;;;;;;;;;;;13.28;100.00;101916.50;4973691;28;19922;-73
2023/09/15 05:16:50;;;;;;;;;;;;;;;13.26;100.00;101915.66;4978608;28;20201;-73
2023/09/15 05:19:15;;;;;;;;;;;;;;;13.26;100.00;101915.66;4978345;28;19917;-73
2023/09/15 05:21:41;;;;;;;;;;;;;;;13.25;100.00;101922.72;4963172;28;20135;-73
2023/09/15 05:24:07;;;;;;;;;;;;;;;13.23;100.00;101918.44;4963860;28;19918;-73
2023/09/15 05:26:32;;;;;;;;;;;;;;;13.20;100.00;101919.38;4961867;28;19918;-73
2023/09/15 05:28:57;;;;;;;;;;;;;;;13.21;100.00;101917.63;4966940;28;19925;-73
2023/09/15 05:31:25;;;;;;;;;;;;;;;13.22;100.00;101924.59;4972082;28;20275;-73
2023/09/15 05:33:55;;;;;;;;;;;;;;;13.22;100.00;101922.84;4971753;28;19919;-73
2023/09/15 05:36:20;;;;;;;;;;;;;;;13.20;100.00;101919.38;4959577;28;19921;-73
2023/09/15 05:38:48;;;;;;;;;;;;;;;13.18;100.00;101915.94;4962464;28;19917;-73
2023/09/15 05:41:14;;;;;;;;;;;;;;;13.20;100.00;101915.91;4971095;28;19921;-73
2023/09/15 05:43:39;;;;;;;;;;;;;;;13.17;100.00;101919.50;4977537;28;19941;-73
2023/09/15 05:46:05;;;;;;;;;;;;;;;13.17;100.00;101911.63;4978132;28;19924;-73
2023/09/15 05:48:30;;;;;;;;;;;;;;;13.18;100.00;101918.56;4959228;28;20121;-73
2023/09/15 05:50:55;;;;;;;;;;;;;;;13.17;100.00;101914.25;4961512;28;20252;-73
2023/09/15 05:53:20;;;;;;;;;;;;;;;13.16;100.00;101922.19;4976370;28;19926;-73
2023/09/15 05:55:46;;;;;;;;;;;;;;;13.14;100.00;101919.59;4976753;28;19991;-73
2023/09/15 05:58:11;;;;;;;;;;;;;;;13.12;100.00;101915.31;4965558;28;19919;-73
2023/09/15 06:00:36;;;;;;;;;;;;;;;13.10;100.00;101917.09;4970868;28;20173;-73
2023/09/15 06:03:02;;;;;;;;;;;;;;;13.12;100.00;101923.19;4964763;28;20208;-73
2023/09/15 06:05:28;;;;;;;;;;;;;;;13.14;100.00;101919.59;4968748;28;19917;-73
2023/09/15 06:07:53;;;;;;;;;;;;;;;13.16;100.00;101923.03;4964239;28;19968;-73
2023/09/15 06:10:19;;;;;;;;;;;;;;;13.19;100.00;101920.31;4965982;28;19922;-73
2023/09/15 06:12:44;;;;;;;;;;;;;;;13.19;100.00;101925.56;4968257;28;20000;-73
2023/09/15 06:15:10;;;;;;;;;;;;;;;13.22;100.00;101932.47;4966914;28;20154;-73
2023/09/15 06:17:35;;;;;;;;;;;;;;;13.27;100.00;101927.06;4967764;28;19924;-73
2023/09/15 06:20:01;;;;;;;;;;;;;;;13.29;100.00;101930.50;4968463;28;19918;-73
2023/09/15 06:22:26;;;;;;;;;;;;;;;13.29;100.00;101926.09;4973758;28;19914;-73
2023/09/15 06:24:51;;;;;;;;;;;;;;;13.31;100.00;101931.34;4974164;28;19914;-73
2023/09/15 06:27:16;;;;;;;;;;;;;;;13.33;100.00;101924.25;4960328;28;19926;-73
2023/09/15 06:29:42;;;;;;;;;;;;;;;13.37;100.00;101933.75;4973403;28;19925;-73
2023/09/15 06:32:07;;;;;;;;;;;;;;;13.39;100.00;101930.16;4976004;28;20225;-73
2023/09/15 06:34:32;;;;;;;;;;;;;;;13.42;100.00;101929.19;4974942;28;20228;-73
2023/09/15 06:36:58;;;;;;;;;;;;;;;13.44;100.00;101919.47;4966268;28;19910;-73
2023/09/15 06:39:23;;;;;;;;;;;;;;;13.47;100.00;101923.78;4970192;28;19909;-73
2023/09/15 06:41:49;;;;;;;;;;;;;;;13.51;100.00;101920.97;4973519;28;20193;-73
2023/09/15 06:44:14;;;;;;;;;;;;;;;13.54;100.00;101912.97;4971166;28;20209;-73
2023/09/15 06:46:40;;;;;;;;;;;;;;;13.56;100.00;101916.41;4971333;28;19969;-73
2023/09/15 06:49:05;;;;;;;;;;;;;;;13.60;100.00;101918.00;4974468;28;20315;-73
2023/09/15 06:51:32;;;;;;;;;;;;;;;13.69;100.00;101919.44;4976197;28;19918;-73
2023/09/15 06:53:57;;;;;;;;;;;;;;;13.77;100.00;101908.63;4971636;28;19949;-73
2023/09/15 06:56:23;;;;;;;;;;;;;;;13.78;100.00;101913.84;4974342;28;19953;-73
2023/09/15 06:58:48;;;;;;;;;;;;;;;13.88;100.00;101910.84;4967972;28;19921;-73
2023/09/15 07:01:13;;;;;;;;;;;;;;;13.90;100.00;101909.03;4976589;28;20131;-73
2023/09/15 07:03:39;;;;;;;;;;;;;;;13.92;100.00;101913.34;4967880;28;20230;-73
2023/09/15 07:06:04;;;;;;;;;;;;;;;13.95;100.00;101907.97;4975609;28;20108;-73
2023/09/15 07:08:29;;;;;;;;;;;;;;;13.96;100.00;101908.81;4964170;28;19973;-73
2023/09/15 07:10:55;;;;;;;;;;;;;;;14.03;100.00;101910.31;4975954;28;19914;-73
2023/09/15 07:13:20;;;;;;;;;;;;;;;14.05;100.00;101916.38;4969534;28;19925;-73
2023/09/15 07:15:47;;;;;;;;;;;;;;;14.09;100.00;101917.09;4974115;28;19964;-73
2023/09/15 07:18:12;;;;;;;;;;;;;;;14.10;100.00;101921.44;4974043;28;19918;-73
2023/09/15 07:20:38;;;;;;;;;;;;;;;14.12;100.00;101925.75;4969172;28;19968;-73
2023/09/15 07:23:03;;;;;;;;;;;;;;;14.13;100.00;101916.91;4969310;28;20256;-73
2023/09/15 07:25:29;;;;;;;;;;;;;;;14.17;100.00;101910.63;4967885;28;20242;-73
2023/09/15 07:27:54;;;;;;;;;;;;;;;14.20;100.00;101904.38;4966564;28;19926;-73
2023/09/15 07:30:19;;;;;;;;;;;;;;;14.23;100.00;101909.53;4969294;28;19917;-73
2023/09/15 07:32:45;;;;;;;;;;;;;;;14.31;100.00;101910.06;4973904;28;19948;-73
2023/09/15 07:35:12;;;;;;;;;;;;;;;14.37;100.00;101899.31;4969333;28;20161;-73
2023/09/15 07:37:37;;;;;;;;;;;;;;;14.43;99.61;101902.63;4966666;28;19925;-73
2023/09/15 07:40:03;;;;;;;;;;;;;;;14.51;99.14;101909.28;4964136;28;19918;-73
2023/09/15 07:42:28;;;;;;;;;;;;;;;14.55;98.65;101912.66;4973613;28;19981;-73
2023/09/15 07:44:54;;;;;;;;;;;;;;;14.52;98.17;101903.09;4975253;28;19937;-73
2023/09/15 07:47:19;;;;;;;;;;;;;;;14.53;98.46;101902.16;4966324;28;19923;-73
2023/09/15 07:49:48;;;;;;;;;;;;;;;14.61;98.19;101894.00;4969072;28;19920;-73
2023/09/15 07:52:13;;;;;;;;;;;;;;;14.63;98.30;101894.78;4962126;28;19910;-73
2023/09/15 07:54:38;;;;;;;;;;;;;;;14.70;98.04;101890.97;4975751;28;19933;-73
2023/09/15 07:57:03;;;;;;;;;;;;;;;14.69;98.18;101896.31;4972606;28;19918;-73
2023/09/15 07:59:29;;;;;;;;;;;;;;;14.74;98.01;101894.34;4971915;28;19918;-73
2023/09/15 08:01:54;;;;;;;;;;;;;;;14.74;98.19;101897.00;4972654;28;19925;-73
2023/09/15 08:04:19;;;;;;;;;;;;;;;14.77;97.92;101900.34;4969812;28;19960;-73
2023/09/15 08:06:45;;;;;;;;;;;;;;;14.83;97.83;101893.13;4968655;28;19922;-73
2023/09/15 08:09:10;;;;;;;;;;;;;;;14.90;97.64;101899.84;4967492;28;19953;-73
2023/09/15 08:11:37;;;;;;;;;;;;;;;14.95;97.56;101887.31;4971592;28;19917;-73
2023/09/15 08:14:03;;;;;;;;;;;;;;;15.02;97.25;101885.28;4974751;28;19905;-73
2023/09/15 08:16:28;;;;;;;;;;;;;;;15.08;96.94;101887.63;4963885;28;20153;-73
2023/09/15 08:18:53;;;;;;;;;;;;;;;15.11;96.54;101893.63;4962911;28;20204;-73
2023/09/15 08:21:18;;;;;;;;;;;;;;;15.09;96.95;101890.22;4961558;28;19919;-73
2023/09/15 08:23:44;;;;;;;;;;;;;;;15.13;96.70;101894.47;4972719;28;20121;-73
2023/09/15 08:26:09;;;;;;;;;;;;;;;15.20;96.90;101889.75;4965095;28;19914;-73
2023/09/15 08:28:37;;;;;;;;;;;;;;;15.27;96.25;101883.28;4973603;28;19961;-73
2023/09/15 08:31:03;;;;;;;;;;;;;;;15.32;95.84;101891.00;4963144;28;19921;-73
2023/09/15 08:33:28;;;;;;;;;;;;;;;15.35;95.97;101889.09;4969786;28;19913;-73
2023/09/15 08:35:54;;;;;;;;;;;;;;;15.36;95.84;101884.66;4975916;28;19918;-73
2023/09/15 08:38:19;;;;;;;;;;;;;;;15.47;95.63;101889.47;4968232;28;20173;-73
2023/09/15 08:40:54;;;;;;;;;;;;;;;15.52;95.34;101887.50;4966488;28;19917;-73
2023/09/15 08:43:19;;;;;;;;;;;;;;;15.60;94.76;101884.50;4972245;28;19925;-73
2023/09/15 08:45:45;;;;;;;;;;;;;;;15.65;94.46;101887.78;4968650;28;19918;-73
2023/09/15 08:48:12;;;;;;;;;;;;;;;15.72;94.11;101883.94;4966510;28;20220;-73
2023/09/15 08:50:38;;;;;;;;;;;;;;;15.80;93.39;101889.75;4968597;28;19953;-73
2023/09/15 08:53:04;;;;;;;;;;;;;;;15.85;93.01;101892.19;4968725;28;20276;-73
2023/09/15 08:55:29;;;;;;;;;;;;;;;15.89;92.56;101888.47;4975939;28;20029;-73
2023/09/15 08:57:55;;;;;;;;;;;;;;;15.94;92.28;101881.19;4973711;28;19918;-73
2023/09/15 09:00:21;;;;;;;;;;;;;;;16.00;91.04;101885.34;4969818;28;19914;-73
2023/09/15 09:02:46;;;;;;;;;;;;;;;16.05;91.05;101881.56;4973037;28;19945;-73
2023/09/15 09:05:12;;;;;;;;;;;;;;;16.11;90.31;101888.31;4969618;28;19918;-73
2023/09/15 09:07:37;;;;;;;;;;;;;;;16.15;90.19;101881.97;4966124;28;19922;-73
2023/09/15 09:10:03;;;;;;;;;;;;;;;16.29;88.96;101878.66;4972336;28;19919;-73
2023/09/15 09:12:31;;;;;;;;;;;;;;;16.31;88.81;101868.88;4968226;28;20021;-73
2023/09/15 09:14:57;;;;;;;;;;;;;;;16.41;88.38;101867.50;4971874;28;19917;-73
2023/09/15 09:17:22;;;;;;;;;;;;;;;16.48;87.29;101866.28;4968710;28;20009;-73
2023/09/15 09:19:49;;;;;;;;;;;;;;;16.51;87.01;101866.09;4969184;28;20176;-73
2023/09/15 09:22:17;;;;;;;;;;;;;;;16.50;87.27;101872.34;4970057;28;19960;-73
2023/09/15 09:24:43;;;;;;;;;;;;;;;16.58;88.03;101868.47;4970139;28;19925;-73
2023/09/15 09:27:09;;;;;;;;;;;;;;;16.62;88.13;101860.28;4965675;28;20243;-73
2023/09/15 09:29:35;;;;;;;;;;;;;;;16.67;87.71;101858.28;4964694;28;20194;-73
2023/09/15 09:32:00;;;;;;;;;;;;;;;16.70;87.78;101859.91;4966237;28;19937;-73
2023/09/15 09:34:25;;;;;;;;;;;;;;;16.81;86.94;101854.09;4969473;28;19925;-73
2023/09/15 09:36:51;;;;;;;;;;;;;;;16.90;85.95;101851.00;4968994;28;20259;-73
2023/09/15 09:39:17;;;;;;;;;;;;;;;16.95;84.93;101854.25;4965327;28;19921;-73
2023/09/15 09:41:45;;;;;;;;;;;;;;;16.94;85.42;101855.19;4970872;28;19918;-73
2023/09/15 09:44:12;;;;;;;;;;;;;;;17.04;85.76;101847.63;4966285;28;19918;-73
2023/09/15 09:46:39;;;;;;;;;;;;;;;17.06;86.13;101849.28;4960177;28;19926;-73
2023/09/15 09:49:04;;;;;;;;;;;;;;;17.08;86.10;101850.06;4969072;28;19923;-73
2023/09/15 09:51:29;;;;;;;;;;;;;;;17.12;86.10;101847.22;4973016;28;19918;-73
2023/09/15 09:53:55;;;;;;;;;;;;;;;17.11;86.00;101838.44;4966763;28;19918;-73
2023/09/15 09:56:21;;;;;;;;;;;;;;;17.19;85.07;101838.91;4973179;28;19941;-73
2023/09/15 09:58:47;;;;;;;;;;;;;;;17.27;84.15;101836.69;4969659;28;20179;-73
2023/09/15 10:01:13;;;;;;;;;;;;;;;17.36;82.95;101838.00;4970420;28;19918;-73
2023/09/15 10:03:40;;;;;;;;;;;;;;;17.47;82.29;101840.06;4959690;28;19973;-73
2023/09/15 10:06:05;;;;;;;;;;;;;;;17.55;82.19;101844.94;4961115;28;19907;-73
2023/09/15 10:08:31;;;;;;;;;;;;;;;17.60;82.17;101843.75;4968789;28;20224;-73
2023/09/15 10:10:56;;;;;;;;;;;;;;;17.70;81.72;101845.91;4973489;28;19985;-73
2023/09/15 10:13:22;;;;;;;;;;;;;;;17.73;80.64;101843.94;4971022;28;19918;-73
2023/09/15 10:15:48;;;;;;;;;;;;;;;17.81;79.74;101844.41;4974713;28;20120;-73
2023/09/15 10:18:14;;;;;;;;;;;;;;;17.87;79.16;101840.56;4967671;28;19949;-73
2023/09/15 10:20:41;;;;;;;;;;;;;;;17.98;77.83;101837.34;4968275;28;20098;-73
2023/09/15 10:23:07;;;;;;;;;;;;;;;18.03;77.43;101825.53;4959099;28;19918;-73
2023/09/15 10:25:41;;;;;;;;;;;;;;;18.08;77.43;101830.59;4962340;28;19983;-73
2023/09/15 10:28:07;;;;;;;;;;;;;;;18.11;77.18;101830.38;4960705;28;19929;-73
2023/09/15 10:30:36;;;;;;;;;;;;;;;18.09;76.48;101820.81;4959018;28;20148;-73
2023/09/15 10:33:03;;;;;;;;;;;;;;;18.09;76.76;101816.38;4947954;28;19917;-73
2023/09/15 10:35:28;;;;;;;;;;;;;;;18.09;77.34;101813.72;4969175;28;20257;-73
2023/09/15 10:37:55;;;;;;;;;;;;;;;18.10;76.37;101820.75;4964832;28;19982;-73
2023/09/15 10:40:20;;;;;;;;;;;;;;;18.10;77.00;101817.22;4966940;28;20069;-73
2023/09/15 10:42:47;;;;;;;;;;;;;;;18.08;77.52;101805.84;4965457;28;20193;-73
2023/09/15 10:45:13;;;;;;;;;;;;;;;18.05;78.21;101803.41;4965329;28;19917;-73
2023/09/15 10:47:38;;;;;;;;;;;;;;;18.09;78.57;101799.63;4960517;28;19929;-73
2023/09/15 10:50:05;;;;;;;;;;;;;;;18.18;78.35;101801.75;4966784;28;19964;-73
2023/09/15 10:52:34;;;;;;;;;;;;;;;18.26;77.44;101803.94;4962731;28;19911;-73
2023/09/15 10:55:00;;;;;;;;;;;;;;;18.33;76.91;101802.66;4964649;28;20216;-73
2023/09/15 10:57:25;;;;;;;;;;;;;;;18.34;77.30;101797.25;4965608;28;19918;-73
2023/09/15 10:59:51;;;;;;;;;;;;;;;18.40;76.25;101788.94;4964541;28;19918;-73
2023/09/15 11:02:16;;;;;;;;;;;;;;;18.47;75.20;101785.94;4967276;28;19918;-73
2023/09/15 11:04:43;;;;;;;;;;;;;;;18.48;75.52;101784.97;4965747;28;20161;-73
2023/09/15 11:07:08;;;;;;;;;;;;;;;18.55;75.01;101783.66;4967198;28;20013;-73
2023/09/15 11:09:33;;;;;;;;;;;;;;;18.56;74.60;101778.28;4963159;28;19926;-73
2023/09/15 11:12:00;;;;;;;;;;;;;;;18.60;74.76;101768.34;4971917;28;19925;-73
2023/09/15 11:14:25;;;;;;;;;;;;;;;18.62;74.71;101774.41;4970397;28;20009;-73
2023/09/15 11:16:53;;;;;;;;;;;;;;;18.68;75.17;101765.22;4967540;28;19918;-73
2023/09/15 11:19:20;;;;;;;;;;;;;;;18.71;73.74;101759.72;4964352;28;19985;-73
2023/09/15 11:21:45;;;;;;;;;;;;;;;18.71;74.58;101765.03;4963927;28;19917;-73
2023/09/15 11:24:11;;;;;;;;;;;;;;;18.74;73.48;101773.66;4961563;28;19917;-73
2023/09/15 11:26:44;;;;;;;;;;;;;;;18.80;74.00;101761.81;4959698;28;19989;-73
2023/09/15 11:29:09;;;;;;;;;;;;;;;18.83;74.56;101767.00;4960675;28;19946;-73
2023/09/15 11:31:35;;;;;;;;;;;;;;;18.86;74.92;101764.13;4968730;28;20249;-73
2023/09/15 11:34:01;;;;;;;;;;;;;;;18.88;73.97;101759.59;4970083;28;20004;-73
2023/09/15 11:36:27;;;;;;;;;;;;;;;18.88;73.71;101766.69;4969017;28;19933;-73
2023/09/15 11:38:52;;;;;;;;;;;;;;;18.96;72.97;101767.09;4967469;28;19922;-73
2023/09/15 11:41:19;;;;;;;;;;;;;;;18.97;72.93;101761.69;4963884;28;19921;-73
2023/09/15 11:43:45;;;;;;;;;;;;;;;19.01;71.60;101774.75;4963836;28;19910;-73
2023/09/15 11:46:10;;;;;;;;;;;;;;;19.04;72.31;101763.97;4965611;28;20240;-73
2023/09/15 11:48:38;;;;;;;;;;;;;;;19.01;72.51;101767.66;4965117;28;20301;-73
2023/09/15 11:51:06;;;;;;;;;;;;;;;18.95;73.20;101760.91;4964017;28;19917;-73
2023/09/15 11:53:32;;;;;;;;;;;;;;;18.93;72.53;101762.81;4967907;28;20017;-73
2023/09/15 11:55:57;;;;;;;;;;;;;;;18.92;72.65;101749.66;4967838;28;20145;-73
2023/09/15 11:58:23;;;;;;;;;;;;;;;18.90;73.46;101755.06;4968956;28;19921;-73
2023/09/15 12:00:48;;;;;;;;;;;;;;;18.89;72.38;101761.28;4969263;28;19918;-73
2023/09/15 12:03:14;;;;;;;;;;;;;;;18.91;73.13;101750.59;4970643;28;19960;-73
2023/09/15 12:05:40;;;;;;;;;;;;;;;19.05;72.24;101757.72;4963186;28;20052;-73
2023/09/15 12:08:05;;;;;;;;;;;;;;;19.13;71.60;101744.81;4973984;28;19996;-73
2023/09/15 12:10:30;;;;;;;;;;;;;;;19.15;70.94;101746.41;4970556;28;20226;-73
2023/09/15 12:12:57;;;;;;;;;;;;;;;19.14;71.14;101739.41;4971799;28;19918;-73
2023/09/15 12:15:23;;;;;;;;;;;;;;;19.10;70.54;101737.03;4970542;28;19965;-73
2023/09/15 12:17:49;;;;;;;;;;;;;;;19.02;70.78;101732.19;4970289;28;19925;-73
2023/09/15 12:20:15;;;;;;;;;;;;;;;18.98;71.40;101730.69;4967561;28;19926;-73
2023/09/15 12:22:41;;;;;;;;;;;;;;;19.00;72.37;101728.78;4969261;28;19972;-73
2023/09/15 12:25:08;;;;;;;;;;;;;;;18.96;72.30;101735.25;4971842;28;20235;-73